Time;durP1;ratioP1;P1;durP2;ratioP2;P2;SDS_P1;SDS_P2;PMS_P1;PMS_P2;Temp;Humidity;BMP_temperature;BMP_pressure;BME280_temperature;BME280_humidity;BME280_pressure;Samples;Min_cycle;Max_cycle;Signal;HPM_P1;HPM_P2
2021/10/18 00:00:21;;;;;;;23.85;16.13;;;11.50;99.90;;;;;;5121785;27;20214;-83
2021/10/18 00:02:48;;;;;;;22.83;16.10;;;11.60;99.90;;;;;;5116323;27;20199;-82
2021/10/18 00:05:16;;;;;;;23.20;17.45;;;11.70;99.90;;;;;;5130294;27;20198;-83
2021/10/18 00:07:50;;;;;;;26.98;17.13;;;11.60;99.90;;;;;;5122740;27;20201;-82
2021/10/18 00:10:23;;;;;;;22.23;14.93;;;11.60;99.90;;;;;;5125756;28;20225;-82
2021/10/18 00:12:57;;;;;;;23.42;16.35;;;11.60;99.90;;;;;;5126260;27;20200;-82
2021/10/18 00:15:24;;;;;;;28.63;17.15;;;11.70;99.90;;;;;;5122867;27;20503;-83
2021/10/18 00:17:51;;;;;;;20.92;16.17;;;11.70;99.90;;;;;;5115790;27;20203;-83
2021/10/18 00:20:18;;;;;;;27.67;17.38;;;11.70;99.90;;;;;;5125989;27;20233;-82
2021/10/18 00:22:47;;;;;;;24.23;17.90;;;11.70;99.90;;;;;;5116639;27;20695;-83
2021/10/18 00:25:20;;;;;;;18.83;16.75;;;11.70;99.90;;;;;;5113364;27;20205;-83
2021/10/18 00:27:48;;;;;;;19.27;15.35;;;11.80;99.90;;;;;;5124825;27;20202;-82
2021/10/18 00:30:16;;;;;;;22.35;16.95;;;11.80;99.90;;;;;;5129803;27;20228;-83
2021/10/18 00:32:43;;;;;;;21.58;17.15;;;11.80;99.90;;;;;;5122364;27;20219;-83
2021/10/18 00:35:10;;;;;;;21.17;16.20;;;11.80;99.90;;;;;;5131940;27;20206;-83
2021/10/18 00:37:43;;;;;;;25.95;17.25;;;11.90;99.90;;;;;;5128238;27;20213;-83
2021/10/18 00:40:27;;;;;;;24.10;15.43;;;11.80;99.90;;;;;;5114946;28;20219;-82
2021/10/18 00:42:56;;;;;;;24.67;17.90;;;11.80;99.90;;;;;;5127496;27;20207;-83
2021/10/18 00:45:23;;;;;;;24.45;16.42;;;11.90;99.90;;;;;;5116614;27;20555;-83
2021/10/18 00:47:57;;;;;;;19.73;15.65;;;11.80;99.90;;;;;;5125687;27;20205;-82
2021/10/18 00:50:25;;;;;;;20.40;15.25;;;11.80;99.90;;;;;;5119402;27;20222;-82
2021/10/18 00:52:54;;;;;;;18.60;15.20;;;11.70;99.90;;;;;;5115442;27;20224;-82
2021/10/18 00:55:30;;;;;;;23.77;15.95;;;11.80;99.90;;;;;;5118939;27;20229;-83
2021/10/18 00:57:59;;;;;;;27.75;16.35;;;11.80;99.90;;;;;;5115358;27;20210;-83
2021/10/18 01:00:26;;;;;;;24.63;16.20;;;11.80;99.90;;;;;;5113155;28;20220;-83
2021/10/18 01:02:53;;;;;;;18.58;13.88;;;11.80;99.90;;;;;;5127072;27;20204;-82
2021/10/18 01:05:22;;;;;;;26.67;16.90;;;11.80;99.90;;;;;;5137591;27;20202;-82
2021/10/18 01:07:54;;;;;;;23.23;15.75;;;11.90;99.90;;;;;;5139368;27;20210;-83
2021/10/18 01:10:21;;;;;;;21.08;15.40;;;11.80;99.90;;;;;;5117238;27;20244;-82
2021/10/18 01:12:48;;;;;;;19.10;15.68;;;11.80;99.90;;;;;;5121497;28;20200;-82
2021/10/18 01:15:17;;;;;;;25.98;17.05;;;11.80;99.90;;;;;;5114413;27;20208;-83
2021/10/18 01:17:44;;;;;;;25.38;18.20;;;11.80;99.90;;;;;;5131556;27;20199;-82
2021/10/18 01:20:14;;;;;;;20.90;17.00;;;11.80;99.90;;;;;;5121585;27;20220;-83
2021/10/18 01:22:42;;;;;;;19.30;15.30;;;11.80;99.90;;;;;;5125973;27;20194;-83
2021/10/18 01:25:12;;;;;;;16.65;13.40;;;11.80;99.90;;;;;;5122024;27;20199;-83
2021/10/18 01:27:41;;;;;;;20.50;14.90;;;11.80;99.90;;;;;;5111402;28;20195;-83
2021/10/18 01:30:14;;;;;;;18.65;14.10;;;11.70;99.90;;;;;;5134104;27;20225;-83
2021/10/18 01:32:49;;;;;;;23.98;14.70;;;11.70;99.90;;;;;;5110891;27;20202;-82
2021/10/18 01:35:17;;;;;;;21.90;15.82;;;11.80;99.90;;;;;;5121490;27;20211;-83
2021/10/18 01:37:51;;;;;;;22.85;15.02;;;11.90;99.90;;;;;;5121259;27;20539;-83
2021/10/18 01:40:45;;;;;;;22.55;14.82;;;11.80;99.90;;;;;;5119987;28;20220;-83
2021/10/18 01:43:12;;;;;;;19.17;14.25;;;11.80;99.90;;;;;;5113903;28;20295;-83
2021/10/18 01:45:39;;;;;;;22.10;15.85;;;11.70;99.90;;;;;;5117924;28;20603;-82
2021/10/18 01:48:07;;;;;;;17.83;15.07;;;11.70;99.90;;;;;;5123009;27;20206;-83
2021/10/18 01:50:34;;;;;;;19.90;15.85;;;11.70;99.90;;;;;;5123257;28;20577;-83
2021/10/18 01:53:02;;;;;;;24.05;15.35;;;11.60;99.90;;;;;;5124153;27;20207;-83
2021/10/18 01:55:37;;;;;;;20.63;15.65;;;11.60;99.90;;;;;;5127869;27;20219;-83
2021/10/18 01:58:04;;;;;;;20.70;15.88;;;11.60;99.90;;;;;;5131683;27;20222;-83
2021/10/18 02:00:31;;;;;;;20.85;15.00;;;11.70;99.90;;;;;;5122297;27;20234;-83
2021/10/18 02:02:59;;;;;;;16.42;14.48;;;11.70;99.90;;;;;;5120994;27;20205;-83
2021/10/18 02:05:27;;;;;;;18.17;14.18;;;11.70;99.90;;;;;;5110616;28;20207;-82
2021/10/18 02:07:54;;;;;;;17.88;14.30;;;11.70;99.90;;;;;;5142702;27;20198;-82
2021/10/18 02:10:23;;;;;;;20.10;14.50;;;11.70;99.90;;;;;;5126582;28;20227;-82
2021/10/18 02:12:53;;;;;;;17.02;14.15;;;11.80;99.90;;;;;;5117300;28;20207;-83
2021/10/18 02:15:20;;;;;;;18.98;14.73;;;11.80;99.90;;;;;;5131454;27;20202;-82
2021/10/18 02:17:47;;;;;;;18.95;14.25;;;11.80;99.90;;;;;;5137309;27;20206;-83
2021/10/18 02:20:15;;;;;;;20.77;15.50;;;11.80;99.90;;;;;;5128770;27;20769;-82
2021/10/18 02:22:43;;;;;;;21.90;14.80;;;11.80;99.90;;;;;;5128769;27;20202;-83
2021/10/18 02:25:12;;;;;;;21.27;15.73;;;11.80;99.90;;;;;;5114507;28;20199;-82
2021/10/18 02:27:41;;;;;;;21.30;16.13;;;11.80;99.90;;;;;;5113866;28;20223;-82
2021/10/18 02:30:10;;;;;;;25.33;15.90;;;11.80;99.90;;;;;;5117707;28;20231;-83
2021/10/18 02:32:38;;;;;;;20.67;15.98;;;11.80;99.90;;;;;;5111340;27;20183;-82
2021/10/18 02:35:06;;;;;;;20.90;15.75;;;11.80;99.90;;;;;;5130882;27;20209;-83
2021/10/18 02:37:33;;;;;;;22.13;16.20;;;11.70;99.90;;;;;;5119452;27;20193;-82
2021/10/18 02:40:01;;;;;;;23.20;16.58;;;11.60;99.90;;;;;;5134432;27;20220;-83
2021/10/18 02:42:28;;;;;;;23.92;16.80;;;11.60;99.90;;;;;;5113192;28;20206;-83
2021/10/18 02:44:56;;;;;;;20.15;15.30;;;11.60;99.90;;;;;;5110170;28;20207;-83
2021/10/18 02:47:23;;;;;;;23.80;16.60;;;11.50;99.90;;;;;;5118261;28;20215;-82
2021/10/18 02:49:50;;;;;;;24.95;15.00;;;11.50;99.90;;;;;;5124638;28;20236;-82
2021/10/18 02:52:17;;;;;;;19.40;16.27;;;11.50;99.90;;;;;;5135157;28;20204;-83
2021/10/18 02:54:44;;;;;;;23.17;16.08;;;11.50;99.90;;;;;;5108304;28;20202;-83
2021/10/18 02:57:12;;;;;;;18.00;15.20;;;11.50;99.90;;;;;;5115131;28;20207;-82
2021/10/18 02:59:39;;;;;;;23.48;18.60;;;11.40;99.90;;;;;;5126632;28;20218;-82
2021/10/18 03:02:12;;;;;;;21.88;15.07;;;11.40;99.90;;;;;;5117099;28;20194;-82
2021/10/18 03:04:40;;;;;;;25.63;16.75;;;11.40;99.90;;;;;;5124107;28;20200;-82
2021/10/18 03:07:07;;;;;;;23.45;16.70;;;11.40;99.90;;;;;;5117559;28;20207;-82
2021/10/18 03:09:39;;;;;;;22.27;15.85;;;11.40;99.90;;;;;;5129661;28;20224;-83
2021/10/18 03:12:09;;;;;;;22.13;16.10;;;11.30;99.90;;;;;;5120781;28;20550;-83
2021/10/18 03:17:42;;;;;;;20.85;15.75;;;11.40;99.90;;;;;;5122239;28;20210;-82
2021/10/18 03:20:11;;;;;;;22.88;15.52;;;11.30;99.90;;;;;;5142001;27;20225;-82
2021/10/18 03:22:39;;;;;;;21.50;16.08;;;11.40;99.90;;;;;;5128842;28;20199;-82
2021/10/18 03:25:08;;;;;;;21.20;15.77;;;11.40;99.90;;;;;;5139089;28;20319;-82
2021/10/18 03:27:35;;;;;;;21.75;17.60;;;11.40;99.90;;;;;;5131058;28;20202;-83
2021/10/18 03:30:02;;;;;;;20.13;16.17;;;11.40;99.90;;;;;;5123454;27;20251;-83
2021/10/18 03:32:29;;;;;;;26.75;17.48;;;11.40;99.90;;;;;;5136352;28;20221;-83
2021/10/18 03:34:59;;;;;;;21.08;14.93;;;11.40;99.90;;;;;;5124394;28;20205;-82
2021/10/18 03:37:26;;;;;;;27.95;17.77;;;11.40;99.90;;;;;;5134155;28;20551;-82
2021/10/18 03:39:54;;;;;;;24.45;15.93;;;11.40;99.90;;;;;;5132564;27;20237;-82
2021/10/18 03:42:21;;;;;;;19.83;14.80;;;11.30;99.90;;;;;;5116619;27;20196;-83
2021/10/18 03:44:48;;;;;;;22.45;16.00;;;11.30;99.90;;;;;;5122276;28;20202;-82
2021/10/18 03:47:15;;;;;;;20.48;15.02;;;11.30;99.90;;;;;;5130417;27;20214;-82
2021/10/18 03:49:42;;;;;;;24.15;15.00;;;11.30;99.90;;;;;;5139161;27;20225;-83
2021/10/18 03:52:11;;;;;;;18.92;15.80;;;11.30;99.90;;;;;;5142314;27;20196;-83
2021/10/18 03:54:38;;;;;;;22.98;15.90;;;11.20;99.90;;;;;;5124618;27;20198;-83
2021/10/18 03:57:10;;;;;;;20.23;16.35;;;11.20;99.90;;;;;;5134946;27;20214;-83
2021/10/18 03:59:41;;;;;;;30.23;16.05;;;11.20;99.90;;;;;;5135744;27;20271;-83
2021/10/18 04:02:08;;;;;;;20.40;15.00;;;11.20;99.90;;;;;;5144288;27;20203;-83
2021/10/18 04:04:35;;;;;;;20.17;16.02;;;11.10;99.90;;;;;;5134303;27;20195;-83
2021/10/18 04:07:02;;;;;;;20.40;16.10;;;11.10;99.90;;;;;;5140433;27;20213;-82
2021/10/18 04:09:30;;;;;;;20.70;15.55;;;11.10;99.90;;;;;;5131700;27;20608;-82
2021/10/18 04:11:57;;;;;;;18.60;16.10;;;11.10;99.90;;;;;;5125334;27;20197;-82
2021/10/18 04:14:25;;;;;;;23.30;18.55;;;11.20;99.90;;;;;;5124158;27;20204;-83
2021/10/18 04:16:52;;;;;;;24.45;16.85;;;11.20;99.90;;;;;;5131010;27;20200;-83
2021/10/18 04:19:20;;;;;;;23.65;16.40;;;11.20;99.90;;;;;;5124551;28;20231;-82
2021/10/18 04:21:47;;;;;;;24.33;15.50;;;11.20;99.90;;;;;;5134322;27;20201;-82
2021/10/18 04:24:14;;;;;;;21.33;16.73;;;11.10;99.90;;;;;;5128089;27;20197;-83
2021/10/18 04:26:42;;;;;;;18.08;14.82;;;11.10;99.90;;;;;;5125602;27;20214;-83
2021/10/18 04:29:09;;;;;;;19.73;15.88;;;11.20;99.90;;;;;;5117035;27;20305;-83
2021/10/18 04:31:36;;;;;;;17.95;15.13;;;11.10;99.90;;;;;;5119655;27;20226;-83
2021/10/18 04:34:04;;;;;;;21.02;17.48;;;11.20;99.90;;;;;;5127471;27;20194;-82
2021/10/18 04:36:31;;;;;;;21.63;15.88;;;11.10;99.90;;;;;;5128331;27;20627;-83
2021/10/18 04:38:59;;;;;;;20.67;16.30;;;11.30;99.90;;;;;;5128990;27;20571;-82
2021/10/18 04:41:26;;;;;;;22.50;15.55;;;11.40;99.90;;;;;;5120041;27;20183;-82
2021/10/18 04:43:54;;;;;;;16.08;14.07;;;11.30;99.90;;;;;;5122571;28;20199;-82
2021/10/18 04:46:21;;;;;;;26.63;19.08;;;11.40;99.90;;;;;;5119476;27;20256;-82
2021/10/18 04:48:50;;;;;;;17.13;14.70;;;11.50;99.90;;;;;;5126885;27;20199;-82
2021/10/18 04:51:17;;;;;;;19.83;17.73;;;11.50;99.90;;;;;;5133080;27;20214;-83
2021/10/18 04:53:44;;;;;;;18.13;15.52;;;11.60;99.90;;;;;;5141566;27;20221;-82
2021/10/18 04:56:11;;;;;;;21.75;16.58;;;11.50;99.90;;;;;;5128609;27;20208;-83
2021/10/18 04:58:43;;;;;;;20.40;16.35;;;11.50;99.90;;;;;;5128957;27;20283;-83
2021/10/18 05:01:12;;;;;;;19.13;15.75;;;11.40;99.90;;;;;;5125133;27;20199;-83
2021/10/18 05:03:39;;;;;;;21.70;16.02;;;11.30;99.90;;;;;;5133591;27;20201;-83
2021/10/18 05:06:06;;;;;;;17.60;14.50;;;11.30;99.90;;;;;;5116051;27;20204;-83
2021/10/18 05:08:35;;;;;;;23.20;14.98;;;11.20;99.90;;;;;;5129470;27;20213;-83
2021/10/18 05:11:02;;;;;;;17.52;15.20;;;11.20;99.90;;;;;;5125679;27;20650;-83
2021/10/18 05:13:29;;;;;;;19.98;15.90;;;11.20;99.90;;;;;;5118868;28;20215;-83
2021/10/18 05:15:56;;;;;;;21.73;13.85;;;11.30;99.90;;;;;;5122402;27;20205;-83
2021/10/18 05:18:25;;;;;;;20.95;14.30;;;11.30;99.90;;;;;;5113126;27;20217;-83
2021/10/18 05:20:52;;;;;;;17.58;15.00;;;11.30;99.90;;;;;;5115971;27;20228;-83
2021/10/18 05:23:19;;;;;;;17.73;13.60;;;11.30;99.90;;;;;;5118398;27;20213;-83
2021/10/18 05:25:47;;;;;;;19.10;13.95;;;11.30;99.90;;;;;;5116248;27;20206;-83
2021/10/18 05:28:14;;;;;;;19.27;13.95;;;11.40;99.90;;;;;;5119878;27;20198;-83
2021/10/18 05:30:41;;;;;;;21.52;17.08;;;11.40;99.90;;;;;;5110903;27;20238;-83
2021/10/18 05:33:09;;;;;;;20.50;13.07;;;11.50;99.90;;;;;;5124475;27;20204;-83
2021/10/18 05:35:38;;;;;;;18.65;13.70;;;11.40;99.90;;;;;;5123907;27;20259;-83
2021/10/18 05:38:05;;;;;;;22.80;14.40;;;11.50;99.90;;;;;;5130012;27;20201;-83
2021/10/18 05:40:32;;;;;;;16.63;13.02;;;11.50;99.90;;;;;;5123582;28;20246;-83
2021/10/18 05:42:59;;;;;;;20.67;14.25;;;11.40;99.90;;;;;;5110456;27;20210;-82
2021/10/18 05:45:27;;;;;;;16.45;14.70;;;11.50;99.90;;;;;;5127441;27;20207;-83
2021/10/18 05:47:56;;;;;;;18.05;15.13;;;11.50;99.90;;;;;;5131213;27;20267;-83
2021/10/18 05:50:25;;;;;;;17.05;13.73;;;11.50;99.90;;;;;;5116813;27;20313;-82
2021/10/18 05:52:54;;;;;;;17.65;14.50;;;11.50;99.90;;;;;;5129988;27;20205;-83
2021/10/18 05:55:28;;;;;;;17.45;14.02;;;11.40;99.90;;;;;;5130040;27;20680;-82
2021/10/18 05:57:59;;;;;;;19.70;14.27;;;11.40;99.90;;;;;;5133821;27;20214;-82
2021/10/18 06:00:27;;;;;;;18.27;15.43;;;11.50;99.90;;;;;;5126221;27;20297;-82
2021/10/18 06:02:57;;;;;;;20.08;15.05;;;11.60;99.90;;;;;;5131321;27;20280;-82
2021/10/18 06:05:27;;;;;;;15.48;13.88;;;11.70;99.90;;;;;;5130912;27;20280;-83
2021/10/18 06:08:12;;;;;;;21.23;15.77;;;11.70;99.90;;;;;;5133012;27;20302;-82
2021/10/18 06:10:40;;;;;;;19.65;15.65;;;11.60;99.90;;;;;;5121262;27;20226;-81
2021/10/18 06:13:08;;;;;;;20.50;15.38;;;11.70;99.90;;;;;;5135807;27;20193;-82
2021/10/18 06:15:35;;;;;;;18.88;15.05;;;11.60;99.90;;;;;;5126695;27;20200;-83
2021/10/18 06:18:11;;;;;;;19.63;16.08;;;11.60;99.90;;;;;;5131829;27;20210;-83
2021/10/18 06:23:23;;;;;;;16.17;14.45;;;11.60;99.90;;;;;;5128320;27;20257;-83
2021/10/18 06:25:50;;;;;;;19.52;14.82;;;11.70;99.90;;;;;;5117262;28;20195;-82
2021/10/18 06:28:17;;;;;;;18.30;14.68;;;11.60;99.90;;;;;;5122954;28;20188;-83
2021/10/18 06:30:44;;;;;;;23.10;15.15;;;11.70;99.90;;;;;;5131636;27;20226;-82
2021/10/18 06:33:12;;;;;;;19.83;16.02;;;11.70;99.90;;;;;;5119722;27;20198;-82
2021/10/18 06:35:40;;;;;;;17.55;14.75;;;11.70;99.90;;;;;;5120832;28;20222;-83
2021/10/18 06:38:17;;;;;;;16.92;13.30;;;11.80;99.90;;;;;;5121907;28;20201;-83
2021/10/18 06:40:48;;;;;;;15.80;13.73;;;11.80;99.90;;;;;;5120340;27;20327;-82
2021/10/18 06:43:16;;;;;;;18.40;14.68;;;11.80;99.90;;;;;;5123764;27;20207;-82
2021/10/18 06:45:44;;;;;;;18.60;13.93;;;11.80;99.90;;;;;;5120838;28;20204;-83
2021/10/18 06:48:13;;;;;;;17.85;13.45;;;11.80;99.90;;;;;;5112017;28;20215;-82
2021/10/18 06:50:41;;;;;;;16.63;14.63;;;11.90;99.90;;;;;;5134317;28;20211;-82
2021/10/18 06:53:19;;;;;;;18.00;15.38;;;12.00;99.90;;;;;;5136451;28;20191;-81
2021/10/18 06:55:48;;;;;;;24.67;15.25;;;12.00;99.90;;;;;;5124288;28;20200;-82
2021/10/18 06:58:15;;;;;;;20.65;13.20;;;12.10;99.90;;;;;;5143207;28;20294;-82
2021/10/18 07:01:08;;;;;;;17.42;14.18;;;12.00;99.90;;;;;;5141218;28;20224;-83
2021/10/18 07:03:35;;;;;;;21.42;14.57;;;12.00;99.90;;;;;;5114661;28;20199;-82
2021/10/18 07:06:24;;;;;;;15.85;13.95;;;12.10;99.90;;;;;;5141049;27;20261;-82
2021/10/18 07:08:51;;;;;;;16.33;13.98;;;12.10;99.90;;;;;;5125932;28;20228;-82
2021/10/18 07:11:26;;;;;;;15.52;13.75;;;12.00;99.90;;;;;;5138679;28;20245;-83
2021/10/18 07:13:53;;;;;;;18.60;14.63;;;12.10;99.90;;;;;;5130383;28;20276;-83
2021/10/18 07:17:18;;;;;;;16.17;13.40;;;12.10;99.90;;;;;;5132232;27;20545;-83
2021/10/18 07:20:05;;;;;;;16.02;13.40;;;12.10;99.90;;;;;;5109743;27;20223;-83
2021/10/18 08:35:15;;;;;;;12.38;9.32;;;13.40;99.90;;;;;;4967526;28;20216;-83
2021/10/18 08:46:00;;;;;;;18.50;10.30;;;13.40;99.90;;;;;;4926795;29;20340;-82
2021/10/18 08:55:37;;;;;;;15.35;12.35;;;13.50;99.90;;;;;;4902507;28;20225;-83
2021/10/18 08:58:04;;;;;;;11.40;9.88;;;13.50;99.90;;;;;;5029131;28;20222;-83
2021/10/18 09:00:40;;;;;;;17.35;11.60;;;13.60;99.90;;;;;;5051947;28;20237;-82
2021/10/18 09:03:19;;;;;;;13.35;10.98;;;13.60;99.90;;;;;;5109593;27;20204;-83
2021/10/18 09:05:46;;;;;;;14.43;11.18;;;13.70;99.90;;;;;;5121932;27;20250;-83
2021/10/18 09:08:35;;;;;;;15.10;12.35;;;13.80;99.90;;;;;;5118211;27;20217;-83
2021/10/18 09:11:06;;;;;;;13.52;12.25;;;13.90;99.90;;;;;;5133312;27;20227;-83
2021/10/18 09:13:35;;;;;;;13.45;11.00;;;13.90;99.90;;;;;;5113134;28;20202;-83
2021/10/18 09:16:02;;;;;;;14.10;10.60;;;14.00;99.90;;;;;;5129573;27;20215;-83
2021/10/18 09:18:30;;;;;;;18.17;11.88;;;13.90;99.90;;;;;;5132237;27;20669;-83
2021/10/18 09:20:59;;;;;;;14.13;10.30;;;13.90;99.90;;;;;;5133476;27;20225;-83
2021/10/18 09:23:31;;;;;;;12.35;10.52;;;13.80;99.90;;;;;;5140634;27;20184;-83
2021/10/18 09:26:00;;;;;;;18.80;12.43;;;13.90;99.90;;;;;;5135871;27;20635;-82
2021/10/18 09:28:30;;;;;;;12.23;10.57;;;14.00;99.90;;;;;;5134785;27;20295;-83
2021/10/18 09:30:58;;;;;;;15.40;12.20;;;14.10;99.90;;;;;;5139452;27;20206;-83
2021/10/18 09:33:50;;;;;;;12.25;11.05;;;14.20;99.90;;;;;;5141554;27;20257;-83
2021/10/18 09:36:23;;;;;;;16.33;10.82;;;14.30;99.90;;;;;;5127069;27;20212;-83
2021/10/18 09:39:15;;;;;;;13.95;11.52;;;14.40;99.90;;;;;;5127354;27;20267;-83
2021/10/18 09:42:20;;;;;;;13.15;10.55;;;14.30;99.90;;;;;;5123091;27;20205;-83
2021/10/18 10:59:28;;;;;;;12.33;9.77;;;16.20;99.90;;;;;;5086821;28;20465;-83
2021/10/18 11:01:58;;;;;;;11.45;10.25;;;16.40;99.90;;;;;;5120712;28;20445;-83
2021/10/18 11:04:50;;;;;;;12.10;10.77;;;16.50;99.90;;;;;;5106471;28;20211;-83
2021/10/18 11:07:48;;;;;;;14.87;12.03;;;16.70;99.90;;;;;;5128628;28;20486;-83
2021/10/18 11:10:24;;;;;;;11.90;10.50;;;16.60;99.90;;;;;;5123742;28;20453;-83
2021/10/18 11:12:53;;;;;;;11.50;10.07;;;16.50;99.90;;;;;;5126948;28;20216;-83
2021/10/18 11:15:24;;;;;;;15.77;11.33;;;16.50;99.90;;;;;;5118455;28;20213;-83
2021/10/18 11:17:53;;;;;;;16.00;10.20;;;16.60;99.90;;;;;;5114676;28;20463;-82
2021/10/18 11:20:23;;;;;;;20.13;12.53;;;16.70;99.90;;;;;;5122006;28;20463;-83
2021/10/18 11:22:51;;;;;;;15.27;10.20;;;16.90;99.90;;;;;;5125915;28;20442;-81
2021/10/18 11:25:23;;;;;;;17.20;11.37;;;17.00;99.90;;;;;;5125883;28;20445;-83
2021/10/18 11:27:54;;;;;;;12.20;10.18;;;17.00;99.90;;;;;;5134982;27;20430;-83
2021/10/18 11:30:24;;;;;;;16.17;10.73;;;17.20;99.90;;;;;;5126042;28;20218;-83
2021/10/18 11:32:58;;;;;;;13.83;10.50;;;17.20;99.90;;;;;;5115664;28;20487;-83
2021/10/18 11:35:27;;;;;;;14.10;10.20;;;17.30;99.90;;;;;;5112495;28;20457;-84
2021/10/18 11:37:57;;;;;;;10.80;9.70;;;17.40;99.90;;;;;;5130164;28;20434;-83
2021/10/18 11:40:29;;;;;;;10.80;9.60;;;17.20;99.90;;;;;;5125600;28;20490;-83
2021/10/18 11:42:58;;;;;;;12.50;9.40;;;17.20;99.90;;;;;;5122404;28;20443;-83
2021/10/18 11:45:27;;;;;;;14.50;10.60;;;17.20;99.90;;;;;;5122210;28;20452;-82
2021/10/18 11:48:02;;;;;;;12.23;10.40;;;17.10;99.90;;;;;;5132245;28;20492;-83
2021/10/18 11:50:29;;;;;;;13.43;9.97;;;17.10;99.90;;;;;;5132854;28;20450;-81
2021/10/18 11:52:58;;;;;;;12.50;10.80;;;17.10;99.90;;;;;;5125065;28;20467;-82
2021/10/18 11:55:29;;;;;;;13.30;11.97;;;17.10;99.90;;;;;;5136742;28;20467;-83
2021/10/18 11:57:58;;;;;;;13.63;10.93;;;17.20;99.90;;;;;;5122432;28;20462;-83
2021/10/18 12:00:29;;;;;;;12.60;10.40;;;17.20;99.90;;;;;;5128195;28;21042;-83
2021/10/18 12:03:01;;;;;;;15.37;10.97;;;17.20;99.90;;;;;;5128475;27;20961;-83
2021/10/18 12:05:37;;;;;;;14.70;10.73;;;17.10;99.90;;;;;;5130389;27;20446;-84
2021/10/18 12:08:07;;;;;;;15.67;11.30;;;17.00;99.90;;;;;;5126302;28;21036;-83
2021/10/18 12:10:37;;;;;;;14.07;11.50;;;16.80;99.90;;;;;;5130429;28;20513;-84
2021/10/18 12:13:16;;;;;;;14.63;11.30;;;16.70;99.90;;;;;;5132216;28;20538;-83
2021/10/18 12:16:08;;;;;;;15.38;11.30;;;16.70;99.90;;;;;;5123063;28;20451;-83
2021/10/18 12:18:39;;;;;;;14.55;11.40;;;16.70;99.90;;;;;;5122042;28;20215;-84
2021/10/18 12:21:08;;;;;;;14.20;11.37;;;16.60;99.90;;;;;;5125609;28;20192;-83
2021/10/18 12:23:37;;;;;;;11.93;10.63;;;16.70;99.90;;;;;;5123383;27;20445;-82
2021/10/18 12:26:13;;;;;;;10.50;9.33;;;16.90;99.90;;;;;;5123081;27;20478;-83
2021/10/18 12:28:49;;;;;;;12.97;9.43;;;17.00;99.90;;;;;;5124426;28;20443;-82
2021/10/18 12:31:34;;;;;;;11.83;10.20;;;17.20;99.90;;;;;;5121409;28;20526;-83
2021/10/18 12:34:07;;;;;;;11.47;9.90;;;17.40;99.90;;;;;;5125112;28;20497;-82
2021/10/18 12:36:51;;;;;;;13.13;9.90;;;17.30;99.90;;;;;;5119502;28;20566;-83
2021/10/18 12:39:36;;;;;;;9.70;8.70;;;17.40;99.90;;;;;;5125427;28;20478;-83
2021/10/18 12:42:05;;;;;;;11.93;9.47;;;17.30;99.90;;;;;;5127493;28;20439;-83
2021/10/18 12:44:35;;;;;;;12.80;9.70;;;17.40;99.90;;;;;;5127386;28;20435;-83
2021/10/18 12:47:02;;;;;;;12.97;11.13;;;17.40;99.90;;;;;;5125620;28;20446;-83
2021/10/18 12:49:30;;;;;;;10.80;8.87;;;17.30;99.90;;;;;;5129571;28;20474;-82
2021/10/18 12:51:57;;;;;;;12.30;8.27;;;17.40;99.90;;;;;;5134305;28;20466;-80
2021/10/18 12:54:27;;;;;;;14.97;8.90;;;17.50;99.90;;;;;;5139154;28;20443;-82
2021/10/18 12:57:09;;;;;;;12.23;8.63;;;17.40;99.90;;;;;;5138777;28;20469;-83
2021/10/18 12:59:39;;;;;;;11.63;9.33;;;17.40;99.90;;;;;;5138529;28;20466;-83
2021/10/18 13:02:21;;;;;;;13.63;10.30;;;17.00;99.90;;;;;;5132627;27;20443;-83
2021/10/18 13:05:10;;;;;;;15.80;10.70;;;17.10;99.90;;;;;;5120504;28;20503;-83
2021/10/18 13:07:38;;;;;;;19.27;10.23;;;17.10;99.90;;;;;;5125696;28;20946;-83
2021/10/18 13:10:07;;;;;;;15.73;10.53;;;17.20;99.90;;;;;;5127034;27;20470;-83
2021/10/18 13:12:36;;;;;;;11.57;8.55;;;17.00;99.90;;;;;;5129819;27;20477;-83
2021/10/18 13:15:04;;;;;;;12.67;9.23;;;16.90;99.90;;;;;;5126455;27;20216;-82
2021/10/18 13:17:31;;;;;;;12.80;8.50;;;16.80;99.90;;;;;;5139866;27;20883;-83
2021/10/18 13:19:58;;;;;;;9.97;8.87;;;16.70;99.90;;;;;;5142158;27;20686;-83
2021/10/18 13:22:25;;;;;;;11.82;8.82;;;16.70;99.90;;;;;;5131312;27;20454;-83
2021/10/18 13:24:53;;;;;;;10.13;7.20;;;16.60;99.90;;;;;;5124228;28;20199;-83
2021/10/18 13:27:20;;;;;;;12.50;8.20;;;16.60;99.90;;;;;;5126607;27;20441;-84
2021/10/18 13:29:49;;;;;;;10.10;7.70;;;16.60;99.90;;;;;;5141233;27;20250;-83
2021/10/18 13:32:17;;;;;;;9.50;7.27;;;16.60;99.90;;;;;;5116855;27;20501;-83
2021/10/18 13:34:44;;;;;;;11.37;8.83;;;16.50;99.90;;;;;;5126087;27;20444;-84
2021/10/18 13:37:12;;;;;;;9.90;7.10;;;16.50;99.90;;;;;;5122297;27;20454;-83
2021/10/18 13:39:39;;;;;;;9.98;7.47;;;16.50;99.90;;;;;;5123348;27;20466;-84
2021/10/18 13:42:07;;;;;;;10.07;7.63;;;16.80;99.90;;;;;;5123073;27;20315;-84
2021/10/18 13:44:34;;;;;;;7.50;5.70;;;16.90;99.90;;;;;;5121787;27;20461;-84
2021/10/18 13:47:04;;;;;;;7.03;5.77;;;17.00;99.70;;;;;;5134150;27;20501;-84
2021/10/18 13:49:31;;;;;;;8.93;7.17;;;17.10;99.70;;;;;;5128887;27;20466;-84
2021/10/18 13:51:58;;;;;;;10.60;6.33;;;17.10;99.50;;;;;;5132983;27;20458;-83
2021/10/18 13:54:25;;;;;;;6.70;6.00;;;17.20;99.90;;;;;;5139329;27;20819;-83
2021/10/18 13:56:53;;;;;;;7.10;6.40;;;17.00;99.90;;;;;;5123978;27;20452;-83
2021/10/18 13:59:20;;;;;;;11.20;5.87;;;16.90;99.90;;;;;;5131637;27;20462;-83
2021/10/18 14:01:48;;;;;;;9.27;7.43;;;17.00;99.90;;;;;;5128427;27;20435;-84
2021/10/18 14:04:18;;;;;;;9.18;6.45;;;17.00;99.90;;;;;;5127460;27;20428;-84
2021/10/18 14:06:47;;;;;;;7.93;6.03;;;17.00;99.90;;;;;;5123331;27;20233;-84
2021/10/18 14:09:15;;;;;;;7.32;6.55;;;16.90;99.90;;;;;;5125301;28;20457;-83
2021/10/18 14:11:43;;;;;;;7.03;5.90;;;16.80;99.90;;;;;;5116692;27;20339;-83
2021/10/18 14:14:11;;;;;;;14.10;7.10;;;16.90;99.90;;;;;;5145392;27;20469;-83
2021/10/18 14:16:39;;;;;;;7.87;6.50;;;16.90;99.90;;;;;;5132606;28;20538;-82
2021/10/18 14:19:07;;;;;;;9.23;6.70;;;16.90;99.90;;;;;;5123631;27;21317;-83
2021/10/18 14:21:37;;;;;;;7.65;6.57;;;16.80;99.90;;;;;;5132472;27;20442;-84
2021/10/18 14:24:07;;;;;;;11.73;6.82;;;16.70;99.90;;;;;;5137064;27;20207;-84
2021/10/18 14:26:35;;;;;;;8.63;6.40;;;16.70;99.90;;;;;;5136099;27;20581;-83
2021/10/18 14:29:02;;;;;;;9.47;6.30;;;16.60;99.90;;;;;;5119994;28;20482;-83
2021/10/18 14:31:29;;;;;;;6.87;6.20;;;16.60;99.90;;;;;;5129460;27;20507;-83
2021/10/18 14:33:57;;;;;;;8.40;6.47;;;16.50;99.90;;;;;;5126412;28;20454;-83
2021/10/18 14:36:25;;;;;;;8.52;6.13;;;16.50;99.90;;;;;;5123345;28;20459;-83
2021/10/18 14:38:53;;;;;;;9.20;6.20;;;16.40;99.90;;;;;;5128643;28;20553;-83
2021/10/18 14:41:23;;;;;;;7.25;6.40;;;16.30;99.90;;;;;;5132266;28;20545;-82
2021/10/18 14:43:53;;;;;;;9.20;6.33;;;16.30;99.90;;;;;;5123899;27;20233;-83
2021/10/18 14:46:21;;;;;;;10.10;6.60;;;16.30;99.90;;;;;;5122507;28;20939;-83
2021/10/18 14:48:48;;;;;;;9.30;6.55;;;16.20;99.90;;;;;;5128547;28;20456;-83
2021/10/18 14:51:16;;;;;;;11.90;7.30;;;16.20;99.90;;;;;;5130935;28;20264;-83
2021/10/18 14:53:43;;;;;;;8.05;6.18;;;16.10;99.90;;;;;;5139787;28;20222;-83
2021/10/18 14:56:12;;;;;;;9.90;7.05;;;16.10;99.90;;;;;;5137920;28;20207;-84
2021/10/18 14:58:39;;;;;;;10.30;6.25;;;15.80;99.90;;;;;;5136366;28;20247;-83
2021/10/18 15:01:06;;;;;;;14.43;6.80;;;15.80;99.90;;;;;;5125697;28;20204;-83
2021/10/18 15:03:33;;;;;;;7.82;6.75;;;15.80;99.90;;;;;;5134965;28;20260;-82
2021/10/18 15:06:01;;;;;;;7.25;6.18;;;15.80;99.90;;;;;;5119184;28;20208;-83
2021/10/18 15:08:29;;;;;;;7.80;5.72;;;15.70;99.90;;;;;;5125351;28;20222;-83
2021/10/18 15:10:56;;;;;;;7.65;6.82;;;15.70;99.90;;;;;;5141257;28;20699;-83
2021/10/18 15:13:25;;;;;;;7.32;6.60;;;15.80;99.90;;;;;;5128022;28;20229;-84
2021/10/18 15:15:52;;;;;;;8.85;7.30;;;15.80;99.90;;;;;;5131941;28;20206;-84
2021/10/18 15:18:19;;;;;;;10.02;6.60;;;15.60;99.90;;;;;;5126690;28;20282;-85
2021/10/18 15:20:47;;;;;;;13.77;7.53;;;15.50;99.90;;;;;;5140085;28;20229;-84
2021/10/18 15:23:14;;;;;;;6.47;5.88;;;15.50;99.90;;;;;;5119944;28;20206;-84
2021/10/18 15:25:42;;;;;;;7.28;6.22;;;15.60;99.90;;;;;;5135639;28;20183;-85
2021/10/18 15:28:09;;;;;;;10.27;7.30;;;15.50;99.90;;;;;;5123022;28;20205;-83
2021/10/18 15:30:38;;;;;;;7.50;6.75;;;15.60;99.90;;;;;;5130748;28;20279;-84
2021/10/18 15:33:05;;;;;;;9.15;7.30;;;15.60;99.90;;;;;;5141952;28;20302;-83